sensor_id;sensor_type;location;lat;lon;timestamp;temperature;humidity
10089;DHT22;51898;49.864;8.550;2024-01-30T00:02:57;1.00;96.10
10089;DHT22;51898;49.864;8.550;2024-01-30T00:05:59;1.00;96.00
10089;DHT22;51898;49.864;8.550;2024-01-30T00:09:01;0.90;96.10
10089;DHT22;51898;49.864;8.550;2024-01-30T00:12:02;1.00;96.10
10089;DHT22;51898;49.864;8.550;2024-01-30T00:15:04;1.00;96.10
10089;DHT22;51898;49.864;8.550;2024-01-30T00:18:09;0.90;96.10
10089;DHT22;51898;49.864;8.550;2024-01-30T00:21:11;1.00;96.20
10089;DHT22;51898;49.864;8.550;2024-01-30T00:24:12;0.90;95.90
10089;DHT22;51898;49.864;8.550;2024-01-30T00:27:14;0.90;95.70
10089;DHT22;51898;49.864;8.550;2024-01-30T00:30:16;0.90;95.50
10089;DHT22;51898;49.864;8.550;2024-01-30T00:33:17;0.80;95.30
10089;DHT22;51898;49.864;8.550;2024-01-30T00:36:19;0.70;95.40
10089;DHT22;51898;49.864;8.550;2024-01-30T00:39:21;0.80;95.40
10089;DHT22;51898;49.864;8.550;2024-01-30T00:42:23;0.70;95.60
10089;DHT22;51898;49.864;8.550;2024-01-30T00:45:25;0.80;95.60
10089;DHT22;51898;49.864;8.550;2024-01-30T00:48:27;0.70;95.40
10089;DHT22;51898;49.864;8.550;2024-01-30T00:51:28;0.70;95.40
10089;DHT22;51898;49.864;8.550;2024-01-30T00:54:31;0.70;95.20
10089;DHT22;51898;49.864;8.550;2024-01-30T00:57:32;0.60;95.30
10089;DHT22;51898;49.864;8.550;2024-01-30T01:00:34;0.60;95.20
10089;DHT22;51898;49.864;8.550;2024-01-30T01:03:36;0.70;95.10
10089;DHT22;51898;49.864;8.550;2024-01-30T01:06:38;0.70;95.10
10089;DHT22;51898;49.864;8.550;2024-01-30T01:09:40;0.60;95.30
10089;DHT22;51898;49.864;8.550;2024-01-30T01:12:41;0.50;95.30
10089;DHT22;51898;49.864;8.550;2024-01-30T01:15:43;0.50;95.70
10089;DHT22;51898;49.864;8.550;2024-01-30T01:18:45;0.50;95.80
10089;DHT22;51898;49.864;8.550;2024-01-30T01:21:47;0.50;96.00
10089;DHT22;51898;49.864;8.550;2024-01-30T01:24:48;0.40;96.20
10089;DHT22;51898;49.864;8.550;2024-01-30T01:27:50;0.40;96.20
10089;DHT22;51898;49.864;8.550;2024-01-30T01:30:55;0.40;96.20
10089;DHT22;51898;49.864;8.550;2024-01-30T01:34:00;0.50;96.10
10089;DHT22;51898;49.864;8.550;2024-01-30T01:37:02;0.50;96.10
10089;DHT22;51898;49.864;8.550;2024-01-30T01:40:05;0.50;96.20
10089;DHT22;51898;49.864;8.550;2024-01-30T01:43:07;0.50;96.20
10089;DHT22;51898;49.864;8.550;2024-01-30T01:46:09;0.50;96.20
10089;DHT22;51898;49.864;8.550;2024-01-30T01:49:11;0.50;96.00
10089;DHT22;51898;49.864;8.550;2024-01-30T01:52:13;0.50;95.90
10089;DHT22;51898;49.864;8.550;2024-01-30T01:55:16;0.50;96.10
10089;DHT22;51898;49.864;8.550;2024-01-30T01:58:20;0.50;96.10
10089;DHT22;51898;49.864;8.550;2024-01-30T02:01:23;0.50;95.90
10089;DHT22;51898;49.864;8.550;2024-01-30T02:04:26;0.50;95.40
10089;DHT22;51898;49.864;8.550;2024-01-30T02:07:28;0.40;95.10
10089;DHT22;51898;49.864;8.550;2024-01-30T02:10:30;0.30;95.00
10089;DHT22;51898;49.864;8.550;2024-01-30T02:13:32;0.20;95.10
10089;DHT22;51898;49.864;8.550;2024-01-30T02:16:33;0.10;95.30
10089;DHT22;51898;49.864;8.550;2024-01-30T02:19:35;0.10;95.20
10089;DHT22;51898;49.864;8.550;2024-01-30T02:22:37;0.00;95.50
10089;DHT22;51898;49.864;8.550;2024-01-30T02:25:40;0.00;95.70
10089;DHT22;51898;49.864;8.550;2024-01-30T02:28:45;0.00;95.80
10089;DHT22;51898;49.864;8.550;2024-01-30T02:31:47;0.00;95.90
10089;DHT22;51898;49.864;8.550;2024-01-30T02:34:49;0.00;96.20
10089;DHT22;51898;49.864;8.550;2024-01-30T02:37:50;0.00;96.30
10089;DHT22;51898;49.864;8.550;2024-01-30T02:40:52;0.00;96.30
10089;DHT22;51898;49.864;8.550;2024-01-30T02:43:54;0.00;96.00
10089;DHT22;51898;49.864;8.550;2024-01-30T02:46:56;0.00;96.00
10089;DHT22;51898;49.864;8.550;2024-01-30T02:49:58;0.00;96.20
10089;DHT22;51898;49.864;8.550;2024-01-30T02:52:59;0.00;96.50
10089;DHT22;51898;49.864;8.550;2024-01-30T02:56:02;0.00;96.60
10089;DHT22;51898;49.864;8.550;2024-01-30T02:59:04;-0.10;96.70
10089;DHT22;51898;49.864;8.550;2024-01-30T03:02:06;-0.10;96.70
10089;DHT22;51898;49.864;8.550;2024-01-30T03:05:08;-0.10;96.80
10089;DHT22;51898;49.864;8.550;2024-01-30T03:08:10;-0.10;96.80
10089;DHT22;51898;49.864;8.550;2024-01-30T03:11:11;-0.20;96.60
10089;DHT22;51898;49.864;8.550;2024-01-30T03:14:13;-0.20;96.50
10089;DHT22;51898;49.864;8.550;2024-01-30T03:17:15;-0.20;96.50
10089;DHT22;51898;49.864;8.550;2024-01-30T03:20:16;-0.20;96.20
10089;DHT22;51898;49.864;8.550;2024-01-30T03:23:18;-0.30;96.40
10089;DHT22;51898;49.864;8.550;2024-01-30T03:26:20;-0.30;96.60
10089;DHT22;51898;49.864;8.550;2024-01-30T03:29:21;-0.40;96.90
10089;DHT22;51898;49.864;8.550;2024-01-30T03:32:23;-0.40;97.20
10089;DHT22;51898;49.864;8.550;2024-01-30T03:35:25;-0.40;97.10
10089;DHT22;51898;49.864;8.550;2024-01-30T03:38:27;-0.30;97.10
10089;DHT22;51898;49.864;8.550;2024-01-30T03:41:28;-0.40;97.10
10089;DHT22;51898;49.864;8.550;2024-01-30T03:44:30;-0.40;97.00
10089;DHT22;51898;49.864;8.550;2024-01-30T03:47:32;-0.40;97.30
10089;DHT22;51898;49.864;8.550;2024-01-30T03:50:33;-0.30;97.40
10089;DHT22;51898;49.864;8.550;2024-01-30T03:53:35;-0.20;97.40
10089;DHT22;51898;49.864;8.550;2024-01-30T03:56:37;-0.30;96.80
10089;DHT22;51898;49.864;8.550;2024-01-30T03:59:42;-0.30;96.80
10089;DHT22;51898;49.864;8.550;2024-01-30T04:02:45;-0.40;96.60
10089;DHT22;51898;49.864;8.550;2024-01-30T04:05:46;-0.30;96.80
10089;DHT22;51898;49.864;8.550;2024-01-30T04:08:48;-0.30;96.90
10089;DHT22;51898;49.864;8.550;2024-01-30T04:11:50;-0.20;97.00
10089;DHT22;51898;49.864;8.550;2024-01-30T04:14:51;-0.20;96.90
10089;DHT22;51898;49.864;8.550;2024-01-30T04:17:53;-0.20;96.70
10089;DHT22;51898;49.864;8.550;2024-01-30T04:20:55;-0.20;96.80
10089;DHT22;51898;49.864;8.550;2024-01-30T04:23:57;-0.20;97.00
10089;DHT22;51898;49.864;8.550;2024-01-30T04:26:59;-0.20;97.40
10089;DHT22;51898;49.864;8.550;2024-01-30T04:30:01;-0.20;97.70
10089;DHT22;51898;49.864;8.550;2024-01-30T04:33:02;-0.20;97.80
10089;DHT22;51898;49.864;8.550;2024-01-30T04:36:07;-0.10;97.90
10089;DHT22;51898;49.864;8.550;2024-01-30T04:39:10;-0.10;98.20
10089;DHT22;51898;49.864;8.550;2024-01-30T04:42:12;-0.10;98.20
10089;DHT22;51898;49.864;8.550;2024-01-30T04:45:14;-0.20;98.20
10089;DHT22;51898;49.864;8.550;2024-01-30T04:48:15;-0.20;98.40
10089;DHT22;51898;49.864;8.550;2024-01-30T04:51:17;-0.20;98.50
10089;DHT22;51898;49.864;8.550;2024-01-30T04:54:19;-0.20;98.60
10089;DHT22;51898;49.864;8.550;2024-01-30T04:57:20;-0.20;98.50
10089;DHT22;51898;49.864;8.550;2024-01-30T05:00:22;-0.20;98.50
10089;DHT22;51898;49.864;8.550;2024-01-30T05:03:24;-0.20;98.70
10089;DHT22;51898;49.864;8.550;2024-01-30T05:06:29;-0.20;98.80
10089;DHT22;51898;49.864;8.550;2024-01-30T05:09:31;-0.10;98.90
10089;DHT22;51898;49.864;8.550;2024-01-30T05:12:33;-0.10;98.80
10089;DHT22;51898;49.864;8.550;2024-01-30T05:15:34;-0.10;98.90
10089;DHT22;51898;49.864;8.550;2024-01-30T05:18:36;-0.10;98.80
10089;DHT22;51898;49.864;8.550;2024-01-30T05:21:38;-0.20;99.20
10089;DHT22;51898;49.864;8.550;2024-01-30T05:24:39;-0.20;99.40
10089;DHT22;51898;49.864;8.550;2024-01-30T05:27:41;-0.20;99.60
10089;DHT22;51898;49.864;8.550;2024-01-30T05:30:43;-0.20;99.60
10089;DHT22;51898;49.864;8.550;2024-01-30T05:33:44;-0.40;100.00
10089;DHT22;51898;49.864;8.550;2024-01-30T05:36:46;-0.30;99.70
10089;DHT22;51898;49.864;8.550;2024-01-30T05:39:48;-0.30;99.70
10089;DHT22;51898;49.864;8.550;2024-01-30T05:42:50;-0.20;99.50
10089;DHT22;51898;49.864;8.550;2024-01-30T05:45:52;-0.20;99.50
10089;DHT22;51898;49.864;8.550;2024-01-30T05:48:54;-0.30;99.50
10089;DHT22;51898;49.864;8.550;2024-01-30T05:51:55;-0.20;99.60
10089;DHT22;51898;49.864;8.550;2024-01-30T05:54:57;-0.30;99.90
10089;DHT22;51898;49.864;8.550;2024-01-30T05:57:59;-0.30;100.00
10089;DHT22;51898;49.864;8.550;2024-01-30T06:01:01;-0.30;100.00
10089;DHT22;51898;49.864;8.550;2024-01-30T06:04:03;-0.20;99.90
10089;DHT22;51898;49.864;8.550;2024-01-30T06:07:05;-0.30;100.00
10089;DHT22;51898;49.864;8.550;2024-01-30T06:10:08;-0.30;99.90
10089;DHT22;51898;49.864;8.550;2024-01-30T06:13:10;-0.30;99.80
10089;DHT22;51898;49.864;8.550;2024-01-30T06:16:12;-0.30;99.90
10089;DHT22;51898;49.864;8.550;2024-01-30T06:19:14;-0.30;99.70
10089;DHT22;51898;49.864;8.550;2024-01-30T06:22:16;-0.30;99.80
10089;DHT22;51898;49.864;8.550;2024-01-30T06:25:17;-0.20;99.70
10089;DHT22;51898;49.864;8.550;2024-01-30T06:28:19;-0.20;99.60
10089;DHT22;51898;49.864;8.550;2024-01-30T06:31:21;-0.20;99.40
10089;DHT22;51898;49.864;8.550;2024-01-30T06:34:23;-0.10;99.30
10089;DHT22;51898;49.864;8.550;2024-01-30T06:37:24;-0.10;99.20
10089;DHT22;51898;49.864;8.550;2024-01-30T06:40:26;-0.10;99.10
10089;DHT22;51898;49.864;8.550;2024-01-30T06:43:28;-0.10;98.70
10089;DHT22;51898;49.864;8.550;2024-01-30T06:46:30;-0.10;98.70
10089;DHT22;51898;49.864;8.550;2024-01-30T06:49:32;-0.20;98.40
10089;DHT22;51898;49.864;8.550;2024-01-30T06:52:34;-0.20;98.30
10089;DHT22;51898;49.864;8.550;2024-01-30T06:55:35;-0.20;98.20
10089;DHT22;51898;49.864;8.550;2024-01-30T06:58:37;-0.20;98.20
10089;DHT22;51898;49.864;8.550;2024-01-30T07:01:39;-0.20;98.10
10089;DHT22;51898;49.864;8.550;2024-01-30T07:04:41;-0.20;98.10
10089;DHT22;51898;49.864;8.550;2024-01-30T07:07:48;-0.20;98.10
10089;DHT22;51898;49.864;8.550;2024-01-30T07:10:49;-0.30;97.90
10089;DHT22;51898;49.864;8.550;2024-01-30T07:13:51;-0.30;97.90
10089;DHT22;51898;49.864;8.550;2024-01-30T07:16:53;-0.20;97.90
10089;DHT22;51898;49.864;8.550;2024-01-30T07:19:54;-0.20;98.10
10089;DHT22;51898;49.864;8.550;2024-01-30T07:22:56;-0.20;98.00
10089;DHT22;51898;49.864;8.550;2024-01-30T07:25:58;-0.20;98.10
10089;DHT22;51898;49.864;8.550;2024-01-30T07:29:20;-0.20;98.40
10089;DHT22;51898;49.864;8.550;2024-01-30T07:32:43;-0.20;98.60
10089;DHT22;51898;49.864;8.550;2024-01-30T07:35:49;-0.20;98.70
10089;DHT22;51898;49.864;8.550;2024-01-30T07:38:50;-0.30;99.20
10089;DHT22;51898;49.864;8.550;2024-01-30T07:41:52;-0.20;99.30
10089;DHT22;51898;49.864;8.550;2024-01-30T07:44:54;-0.10;99.20
10089;DHT22;51898;49.864;8.550;2024-01-30T07:47:55;0.00;99.10
10089;DHT22;51898;49.864;8.550;2024-01-30T07:50:57;0.10;99.10
10089;DHT22;51898;49.864;8.550;2024-01-30T07:53:59;0.10;98.70
10089;DHT22;51898;49.864;8.550;2024-01-30T07:57:01;0.20;98.40
10089;DHT22;51898;49.864;8.550;2024-01-30T08:00:02;0.20;98.20
10089;DHT22;51898;49.864;8.550;2024-01-30T08:03:04;0.30;98.10
10089;DHT22;51898;49.864;8.550;2024-01-30T08:06:06;0.40;98.00
10089;DHT22;51898;49.864;8.550;2024-01-30T08:09:08;0.50;97.80
10089;DHT22;51898;49.864;8.550;2024-01-30T08:12:10;0.70;97.70
10089;DHT22;51898;49.864;8.550;2024-01-30T08:15:12;0.70;97.30
10089;DHT22;51898;49.864;8.550;2024-01-30T08:18:15;0.80;97.30
10089;DHT22;51898;49.864;8.550;2024-01-30T08:21:17;0.90;97.00
10089;DHT22;51898;49.864;8.550;2024-01-30T08:24:19;1.00;97.00
10089;DHT22;51898;49.864;8.550;2024-01-30T08:27:20;1.10;96.70
10089;DHT22;51898;49.864;8.550;2024-01-30T08:30:22;1.30;96.60
10089;DHT22;51898;49.864;8.550;2024-01-30T08:33:24;1.40;96.20
10089;DHT22;51898;49.864;8.550;2024-01-30T08:36:25;1.60;95.90
10089;DHT22;51898;49.864;8.550;2024-01-30T08:39:27;1.70;95.50
10089;DHT22;51898;49.864;8.550;2024-01-30T08:42:29;1.80;94.90
10089;DHT22;51898;49.864;8.550;2024-01-30T08:45:30;1.90;94.60
10089;DHT22;51898;49.864;8.550;2024-01-30T08:48:32;2.10;94.30
10089;DHT22;51898;49.864;8.550;2024-01-30T08:51:34;2.20;94.00
10089;DHT22;51898;49.864;8.550;2024-01-30T08:54:36;2.30;93.90
10089;DHT22;51898;49.864;8.550;2024-01-30T08:57:37;2.40;93.50
10089;DHT22;51898;49.864;8.550;2024-01-30T09:00:39;2.50;93.30
10089;DHT22;51898;49.864;8.550;2024-01-30T09:03:41;2.60;93.00
10089;DHT22;51898;49.864;8.550;2024-01-30T09:06:45;2.60;92.90
10089;DHT22;51898;49.864;8.550;2024-01-30T09:09:47;2.60;92.70
10089;DHT22;51898;49.864;8.550;2024-01-30T09:12:49;2.70;92.70
10089;DHT22;51898;49.864;8.550;2024-01-30T09:15:51;2.70;92.50
10089;DHT22;51898;49.864;8.550;2024-01-30T09:18:53;2.70;92.20
10089;DHT22;51898;49.864;8.550;2024-01-30T09:21:55;2.80;92.30
10089;DHT22;51898;49.864;8.550;2024-01-30T09:24:57;2.90;92.40
10089;DHT22;51898;49.864;8.550;2024-01-30T09:27:59;2.90;91.90
10089;DHT22;51898;49.864;8.550;2024-01-30T09:31:01;3.00;91.60
10089;DHT22;51898;49.864;8.550;2024-01-30T09:34:02;3.10;91.50
10089;DHT22;51898;49.864;8.550;2024-01-30T09:37:04;3.10;91.70
10089;DHT22;51898;49.864;8.550;2024-01-30T09:40:07;3.10;91.60
10089;DHT22;51898;49.864;8.550;2024-01-30T09:43:11;3.30;91.70
10089;DHT22;51898;49.864;8.550;2024-01-30T09:46:20;3.40;91.60
10089;DHT22;51898;49.864;8.550;2024-01-30T09:49:23;3.60;91.70
10089;DHT22;51898;49.864;8.550;2024-01-30T09:52:26;3.80;91.50
10089;DHT22;51898;49.864;8.550;2024-01-30T09:55:28;4.00;91.30
10089;DHT22;51898;49.864;8.550;2024-01-30T09:58:30;4.30;90.90
10089;DHT22;51898;49.864;8.550;2024-01-30T10:01:31;4.40;90.50
10089;DHT22;51898;49.864;8.550;2024-01-30T10:04:35;4.60;89.70
10089;DHT22;51898;49.864;8.550;2024-01-30T10:07:37;4.70;88.40
10089;DHT22;51898;49.864;8.550;2024-01-30T10:10:39;4.80;88.00
10089;DHT22;51898;49.864;8.550;2024-01-30T10:13:41;4.70;87.60
10089;DHT22;51898;49.864;8.550;2024-01-30T10:16:42;4.60;87.50
10089;DHT22;51898;49.864;8.550;2024-01-30T10:19:47;4.60;88.00
10089;DHT22;51898;49.864;8.550;2024-01-30T10:22:49;4.60;88.10
10089;DHT22;51898;49.864;8.550;2024-01-30T10:25:51;4.60;88.20
10089;DHT22;51898;49.864;8.550;2024-01-30T10:28:53;4.60;87.80
10089;DHT22;51898;49.864;8.550;2024-01-30T10:32:02;4.70;87.90
10089;DHT22;51898;49.864;8.550;2024-01-30T10:35:04;4.80;88.40
10089;DHT22;51898;49.864;8.550;2024-01-30T10:38:07;4.90;88.70
10089;DHT22;51898;49.864;8.550;2024-01-30T10:41:13;5.00;88.10
10089;DHT22;51898;49.864;8.550;2024-01-30T10:44:19;5.20;88.50
10089;DHT22;51898;49.864;8.550;2024-01-30T10:47:28;5.20;87.40
10089;DHT22;51898;49.864;8.550;2024-01-30T10:50:30;5.30;87.80
10089;DHT22;51898;49.864;8.550;2024-01-30T10:53:34;5.40;87.30
10089;DHT22;51898;49.864;8.550;2024-01-30T10:56:37;5.40;87.40
10089;DHT22;51898;49.864;8.550;2024-01-30T10:59:40;5.50;87.30
10089;DHT22;51898;49.864;8.550;2024-01-30T11:02:46;5.60;87.50
10089;DHT22;51898;49.864;8.550;2024-01-30T11:05:52;5.70;86.70
10089;DHT22;51898;49.864;8.550;2024-01-30T11:09:10;5.70;86.10
10089;DHT22;51898;49.864;8.550;2024-01-30T11:12:13;5.80;86.70
10089;DHT22;51898;49.864;8.550;2024-01-30T11:15:16;5.90;86.60
10089;DHT22;51898;49.864;8.550;2024-01-30T11:18:25;6.00;85.80
10089;DHT22;51898;49.864;8.550;2024-01-30T11:21:27;6.00;86.10
10089;DHT22;51898;49.864;8.550;2024-01-30T11:24:28;6.10;85.90
10089;DHT22;51898;49.864;8.550;2024-01-30T11:27:31;6.10;86.30
10089;DHT22;51898;49.864;8.550;2024-01-30T11:30:33;6.20;86.20
10089;DHT22;51898;49.864;8.550;2024-01-30T11:33:35;6.40;85.90
10089;DHT22;51898;49.864;8.550;2024-01-30T11:36:38;6.60;85.60
10089;DHT22;51898;49.864;8.550;2024-01-30T11:39:44;6.70;85.60
10089;DHT22;51898;49.864;8.550;2024-01-30T11:42:47;6.90;85.30
10089;DHT22;51898;49.864;8.550;2024-01-30T11:45:50;7.00;84.90
10089;DHT22;51898;49.864;8.550;2024-01-30T11:48:52;7.20;84.50
10089;DHT22;51898;49.864;8.550;2024-01-30T11:51:54;7.30;84.50
10089;DHT22;51898;49.864;8.550;2024-01-30T11:54:56;7.50;84.10
10089;DHT22;51898;49.864;8.550;2024-01-30T11:57:58;7.60;83.80
10089;DHT22;51898;49.864;8.550;2024-01-30T12:01:00;7.70;83.60
10089;DHT22;51898;49.864;8.550;2024-01-30T12:04:02;7.90;83.30
10089;DHT22;51898;49.864;8.550;2024-01-30T12:07:05;8.00;83.10
10089;DHT22;51898;49.864;8.550;2024-01-30T12:10:08;8.10;82.40
10089;DHT22;51898;49.864;8.550;2024-01-30T12:13:11;8.30;82.10
10089;DHT22;51898;49.864;8.550;2024-01-30T12:16:13;8.30;81.50
10089;DHT22;51898;49.864;8.550;2024-01-30T12:19:25;8.50;81.00
10089;DHT22;51898;49.864;8.550;2024-01-30T12:22:27;8.60;80.40
10089;DHT22;51898;49.864;8.550;2024-01-30T12:25:29;8.70;79.70
10089;DHT22;51898;49.864;8.550;2024-01-30T12:28:30;8.70;80.00
10089;DHT22;51898;49.864;8.550;2024-01-30T12:31:32;8.90;79.40
10089;DHT22;51898;49.864;8.550;2024-01-30T12:34:40;8.90;79.20
10089;DHT22;51898;49.864;8.550;2024-01-30T12:37:57;9.00;79.00
10089;DHT22;51898;49.864;8.550;2024-01-30T12:40:59;9.00;79.20
10089;DHT22;51898;49.864;8.550;2024-01-30T12:44:01;9.10;78.50
10089;DHT22;51898;49.864;8.550;2024-01-30T12:47:03;9.20;78.50
10089;DHT22;51898;49.864;8.550;2024-01-30T12:50:05;9.30;78.40
10089;DHT22;51898;49.864;8.550;2024-01-30T12:53:07;9.50;78.20
10089;DHT22;51898;49.864;8.550;2024-01-30T12:56:10;9.50;77.90
10089;DHT22;51898;49.864;8.550;2024-01-30T12:59:12;9.60;77.20
10089;DHT22;51898;49.864;8.550;2024-01-30T13:02:14;9.70;77.00
10089;DHT22;51898;49.864;8.550;2024-01-30T13:05:16;9.80;77.20
10089;DHT22;51898;49.864;8.550;2024-01-30T13:08:18;9.90;77.00
10089;DHT22;51898;49.864;8.550;2024-01-30T13:11:20;10.00;76.90
10089;DHT22;51898;49.864;8.550;2024-01-30T13:14:22;10.00;76.20
10089;DHT22;51898;49.864;8.550;2024-01-30T13:17:24;10.10;75.80
10089;DHT22;51898;49.864;8.550;2024-01-30T13:20:25;10.10;76.20
10089;DHT22;51898;49.864;8.550;2024-01-30T13:23:28;10.10;75.50
10089;DHT22;51898;49.864;8.550;2024-01-30T13:26:31;10.00;75.70
10089;DHT22;51898;49.864;8.550;2024-01-30T13:29:32;9.90;76.00
10089;DHT22;51898;49.864;8.550;2024-01-30T13:32:34;9.90;76.30
10089;DHT22;51898;49.864;8.550;2024-01-30T13:35:36;9.90;76.10
10089;DHT22;51898;49.864;8.550;2024-01-30T13:38:38;9.80;76.10
10089;DHT22;51898;49.864;8.550;2024-01-30T13:41:41;9.90;76.20
10089;DHT22;51898;49.864;8.550;2024-01-30T13:44:43;9.90;76.30
10089;DHT22;51898;49.864;8.550;2024-01-30T13:47:45;10.00;76.40
10089;DHT22;51898;49.864;8.550;2024-01-30T13:50:48;10.00;75.60
10089;DHT22;51898;49.864;8.550;2024-01-30T13:53:49;10.00;75.50
10089;DHT22;51898;49.864;8.550;2024-01-30T13:56:52;9.90;75.40
10089;DHT22;51898;49.864;8.550;2024-01-30T13:59:53;9.90;75.20
10089;DHT22;51898;49.864;8.550;2024-01-30T14:02:55;9.90;75.20
10089;DHT22;51898;49.864;8.550;2024-01-30T14:05:58;9.90;75.00
10089;DHT22;51898;49.864;8.550;2024-01-30T14:09:00;9.80;75.00
10089;DHT22;51898;49.864;8.550;2024-01-30T14:12:09;9.60;75.10
10089;DHT22;51898;49.864;8.550;2024-01-30T14:15:11;9.60;75.40
10089;DHT22;51898;49.864;8.550;2024-01-30T14:18:28;9.50;75.90
10089;DHT22;51898;49.864;8.550;2024-01-30T14:21:29;9.40;76.00
10089;DHT22;51898;49.864;8.550;2024-01-30T14:24:31;9.40;76.30
10089;DHT22;51898;49.864;8.550;2024-01-30T14:27:33;9.40;76.30
10089;DHT22;51898;49.864;8.550;2024-01-30T14:30:34;9.40;76.30
10089;DHT22;51898;49.864;8.550;2024-01-30T14:33:37;9.40;76.10
10089;DHT22;51898;49.864;8.550;2024-01-30T14:36:41;9.40;76.00
10089;DHT22;51898;49.864;8.550;2024-01-30T14:39:43;9.40;76.10
10089;DHT22;51898;49.864;8.550;2024-01-30T14:42:44;9.30;75.90
10089;DHT22;51898;49.864;8.550;2024-01-30T14:45:46;9.30;76.10
10089;DHT22;51898;49.864;8.550;2024-01-30T14:48:50;9.30;76.50
10089;DHT22;51898;49.864;8.550;2024-01-30T14:51:53;9.30;76.60
10089;DHT22;51898;49.864;8.550;2024-01-30T14:54:55;9.30;76.70
10089;DHT22;51898;49.864;8.550;2024-01-30T14:57:57;9.20;77.00
10089;DHT22;51898;49.864;8.550;2024-01-30T15:01:00;9.20;77.00
10089;DHT22;51898;49.864;8.550;2024-01-30T15:04:02;9.10;77.10
10089;DHT22;51898;49.864;8.550;2024-01-30T15:07:04;9.10;77.30
10089;DHT22;51898;49.864;8.550;2024-01-30T15:10:07;9.10;77.30
10089;DHT22;51898;49.864;8.550;2024-01-30T15:13:10;9.10;77.60
10089;DHT22;51898;49.864;8.550;2024-01-30T15:16:12;9.10;77.80
10089;DHT22;51898;49.864;8.550;2024-01-30T15:19:14;9.00;78.00
10089;DHT22;51898;49.864;8.550;2024-01-30T15:22:16;9.00;78.30
10089;DHT22;51898;49.864;8.550;2024-01-30T15:25:18;9.00;78.30
10089;DHT22;51898;49.864;8.550;2024-01-30T15:28:33;8.90;78.70
10089;DHT22;51898;49.864;8.550;2024-01-30T15:31:35;8.90;78.70
10089;DHT22;51898;49.864;8.550;2024-01-30T15:34:37;8.90;78.70
10089;DHT22;51898;49.864;8.550;2024-01-30T15:37:39;8.90;78.70
10089;DHT22;51898;49.864;8.550;2024-01-30T15:40:40;8.90;78.80
10089;DHT22;51898;49.864;8.550;2024-01-30T15:43:42;8.90;79.00
10089;DHT22;51898;49.864;8.550;2024-01-30T15:46:44;8.80;79.20
10089;DHT22;51898;49.864;8.550;2024-01-30T15:49:46;8.80;79.50
10089;DHT22;51898;49.864;8.550;2024-01-30T15:52:48;8.80;79.60
10089;DHT22;51898;49.864;8.550;2024-01-30T15:55:49;8.80;80.10
10089;DHT22;51898;49.864;8.550;2024-01-30T15:58:51;8.70;80.30
10089;DHT22;51898;49.864;8.550;2024-01-30T16:01:53;8.70;80.60
10089;DHT22;51898;49.864;8.550;2024-01-30T16:04:55;8.70;80.80
10089;DHT22;51898;49.864;8.550;2024-01-30T16:07:58;8.70;80.90
10089;DHT22;51898;49.864;8.550;2024-01-30T16:11:00;8.60;81.10
10089;DHT22;51898;49.864;8.550;2024-01-30T16:14:02;8.60;81.10
10089;DHT22;51898;49.864;8.550;2024-01-30T16:17:03;8.50;81.40
10089;DHT22;51898;49.864;8.550;2024-01-30T16:20:06;8.60;81.40
10089;DHT22;51898;49.864;8.550;2024-01-30T16:23:08;8.50;81.60
10089;DHT22;51898;49.864;8.550;2024-01-30T16:26:09;8.60;81.70
10089;DHT22;51898;49.864;8.550;2024-01-30T16:29:11;8.50;82.00
10089;DHT22;51898;49.864;8.550;2024-01-30T16:32:13;8.50;82.30
10089;DHT22;51898;49.864;8.550;2024-01-30T16:35:15;8.50;82.30
10089;DHT22;51898;49.864;8.550;2024-01-30T16:38:16;8.50;82.50
10089;DHT22;51898;49.864;8.550;2024-01-30T16:41:18;8.50;82.60
10089;DHT22;51898;49.864;8.550;2024-01-30T16:44:20;8.40;83.00
10089;DHT22;51898;49.864;8.550;2024-01-30T16:47:22;8.40;83.20
10089;DHT22;51898;49.864;8.550;2024-01-30T16:50:23;8.40;83.30
10089;DHT22;51898;49.864;8.550;2024-01-30T16:53:25;8.40;83.30
10089;DHT22;51898;49.864;8.550;2024-01-30T16:56:27;8.40;83.30
10089;DHT22;51898;49.864;8.550;2024-01-30T16:59:28;8.40;83.40
10089;DHT22;51898;49.864;8.550;2024-01-30T17:02:30;8.30;83.50
10089;DHT22;51898;49.864;8.550;2024-01-30T17:05:32;8.30;83.80
10089;DHT22;51898;49.864;8.550;2024-01-30T17:08:33;8.30;83.90
10089;DHT22;51898;49.864;8.550;2024-01-30T17:11:35;8.30;84.30
10089;DHT22;51898;49.864;8.550;2024-01-30T17:14:37;8.30;84.40
10089;DHT22;51898;49.864;8.550;2024-01-30T17:17:41;8.30;84.60
10089;DHT22;51898;49.864;8.550;2024-01-30T17:20:42;8.30;84.70
10089;DHT22;51898;49.864;8.550;2024-01-30T17:23:44;8.30;84.80
10089;DHT22;51898;49.864;8.550;2024-01-30T17:26:46;8.30;84.90
10089;DHT22;51898;49.864;8.550;2024-01-30T17:29:47;8.30;85.00
10089;DHT22;51898;49.864;8.550;2024-01-30T17:32:49;8.20;85.20
10089;DHT22;51898;49.864;8.550;2024-01-30T17:35:52;8.20;85.40
10089;DHT22;51898;49.864;8.550;2024-01-30T17:38:53;8.20;85.50
10089;DHT22;51898;49.864;8.550;2024-01-30T17:41:55;8.20;85.60
10089;DHT22;51898;49.864;8.550;2024-01-30T17:44:57;8.20;85.80
10089;DHT22;51898;49.864;8.550;2024-01-30T17:48:00;8.20;85.80
10089;DHT22;51898;49.864;8.550;2024-01-30T17:51:02;8.20;86.00
10089;DHT22;51898;49.864;8.550;2024-01-30T17:54:04;8.20;86.00
10089;DHT22;51898;49.864;8.550;2024-01-30T17:57:06;8.20;86.20
10089;DHT22;51898;49.864;8.550;2024-01-30T18:00:08;8.10;86.20
10089;DHT22;51898;49.864;8.550;2024-01-30T18:03:10;8.10;86.40
10089;DHT22;51898;49.864;8.550;2024-01-30T18:06:13;8.10;86.60
10089;DHT22;51898;49.864;8.550;2024-01-30T18:09:37;8.10;86.90
10089;DHT22;51898;49.864;8.550;2024-01-30T18:13:06;8.10;86.80
10089;DHT22;51898;49.864;8.550;2024-01-30T18:16:10;8.10;87.00
10089;DHT22;51898;49.864;8.550;2024-01-30T18:19:13;8.10;87.00
10089;DHT22;51898;49.864;8.550;2024-01-30T18:22:15;8.10;87.10
10089;DHT22;51898;49.864;8.550;2024-01-30T18:25:17;8.10;87.10
10089;DHT22;51898;49.864;8.550;2024-01-30T18:28:19;8.10;87.40
10089;DHT22;51898;49.864;8.550;2024-01-30T18:31:21;8.00;87.60
10089;DHT22;51898;49.864;8.550;2024-01-30T18:34:24;8.00;87.80
10089;DHT22;51898;49.864;8.550;2024-01-30T18:37:26;8.10;87.70
10089;DHT22;51898;49.864;8.550;2024-01-30T18:40:28;8.10;87.70
10089;DHT22;51898;49.864;8.550;2024-01-30T18:43:29;8.10;87.70
10089;DHT22;51898;49.864;8.550;2024-01-30T18:46:33;8.10;87.60
10089;DHT22;51898;49.864;8.550;2024-01-30T18:49:35;8.00;87.80
10089;DHT22;51898;49.864;8.550;2024-01-30T18:52:37;8.00;87.70
10089;DHT22;51898;49.864;8.550;2024-01-30T18:55:39;8.10;87.80
10089;DHT22;51898;49.864;8.550;2024-01-30T18:58:40;8.00;87.80
10089;DHT22;51898;49.864;8.550;2024-01-30T19:01:43;8.00;87.70
10089;DHT22;51898;49.864;8.550;2024-01-30T19:04:45;8.00;87.60
10089;DHT22;51898;49.864;8.550;2024-01-30T19:07:49;8.00;87.40
10089;DHT22;51898;49.864;8.550;2024-01-30T19:10:51;8.00;87.40
10089;DHT22;51898;49.864;8.550;2024-01-30T19:13:52;7.90;87.60
10089;DHT22;51898;49.864;8.550;2024-01-30T19:16:54;7.90;87.70
10089;DHT22;51898;49.864;8.550;2024-01-30T19:19:56;7.90;87.90
10089;DHT22;51898;49.864;8.550;2024-01-30T19:22:57;7.90;88.10
10089;DHT22;51898;49.864;8.550;2024-01-30T19:25:59;7.90;88.20
10089;DHT22;51898;49.864;8.550;2024-01-30T19:29:01;8.00;88.20